Time;durP1;ratioP1;P1;durP2;ratioP2;P2;SDS_P1;SDS_P2;PMS_P1;PMS_P2;Temp;Humidity;BMP_temperature;BMP_pressure;BME280_temperature;BME280_humidity;BME280_pressure;Samples;Min_cycle;Max_cycle;Signal;HPM_P1;HPM_P2
2022/08/03 00:00:59;;;;;;;5.63;4.57;;;18.40;99.90;;;;;;4998128;28;20115;-76
2022/08/03 00:03:27;;;;;;;8.68;5.03;;;18.40;99.90;;;;;;5016513;28;20496;-76
2022/08/03 00:05:54;;;;;;;5.68;4.90;;;18.40;99.90;;;;;;4999115;28;20100;-77
2022/08/03 00:08:23;;;;;;;6.60;4.80;;;18.40;99.90;;;;;;5016298;28;20038;-75
2022/08/03 00:10:50;;;;;;;9.13;5.20;;;18.40;99.90;;;;;;5017104;28;20042;-76
2022/08/03 00:13:18;;;;;;;6.78;5.30;;;18.40;99.90;;;;;;4998878;28;20046;-76
2022/08/03 00:15:46;;;;;;;6.07;5.03;;;18.40;99.90;;;;;;5016716;28;20061;-76
2022/08/03 00:18:13;;;;;;;8.55;5.03;;;18.40;99.90;;;;;;4999312;28;20396;-75
2022/08/03 00:20:40;;;;;;;7.85;5.35;;;18.30;99.90;;;;;;5017131;28;20041;-76
2022/08/03 00:23:07;;;;;;;7.10;5.75;;;18.30;99.90;;;;;;4998900;28;20080;-75
2022/08/03 00:25:36;;;;;;;6.32;5.07;;;18.30;99.90;;;;;;5016647;28;20073;-75
2022/08/03 00:28:05;;;;;;;7.47;5.45;;;18.30;99.90;;;;;;5016607;28;20030;-76
2022/08/03 00:30:33;;;;;;;7.60;5.50;;;18.20;99.90;;;;;;5034318;28;20045;-76
2022/08/03 00:33:01;;;;;;;8.18;5.78;;;18.20;99.90;;;;;;5036082;28;20121;-74
2022/08/03 00:35:28;;;;;;;8.23;5.60;;;18.20;99.90;;;;;;5026325;28;20049;-75
2022/08/03 00:37:56;;;;;;;7.57;5.80;;;18.10;99.90;;;;;;5017177;28;20096;-76
2022/08/03 00:40:23;;;;;;;7.60;5.97;;;18.10;99.90;;;;;;4999035;28;20069;-75
2022/08/03 00:42:54;;;;;;;9.20;5.97;;;18.00;99.90;;;;;;4999559;28;20052;-75
2022/08/03 00:45:24;;;;;;;6.60;5.80;;;18.10;99.90;;;;;;5016363;28;20042;-76
2022/08/03 00:47:52;;;;;;;8.10;5.82;;;18.10;99.90;;;;;;4999058;28;20042;-77
2022/08/03 00:50:21;;;;;;;6.57;5.40;;;18.00;99.90;;;;;;5016486;28;20046;-76
2022/08/03 00:52:50;;;;;;;12.90;5.45;;;18.00;99.90;;;;;;4998380;28;20521;-76
2022/08/03 00:55:17;;;;;;;7.43;4.90;;;17.90;99.90;;;;;;5016386;28;20438;-76
2022/08/03 00:57:45;;;;;;;6.45;5.53;;;17.90;99.90;;;;;;5015718;28;20042;-75
2022/08/03 01:00:16;;;;;;;12.25;6.25;;;17.80;99.90;;;;;;5015751;28;20038;-76
2022/08/03 01:02:44;;;;;;;7.40;5.53;;;17.70;99.90;;;;;;4997173;28;20053;-76
2022/08/03 01:05:11;;;;;;;7.90;5.60;;;17.70;99.90;;;;;;5024205;28;20041;-76
2022/08/03 01:07:48;;;;;;;7.13;6.43;;;17.70;99.90;;;;;;5032572;28;20038;-77
2022/08/03 01:10:26;;;;;;;9.02;5.80;;;17.60;99.90;;;;;;5037207;28;20041;-77
2022/08/03 01:13:03;;;;;;;8.98;5.88;;;17.70;99.90;;;;;;5027326;28;20064;-76
2022/08/03 01:15:38;;;;;;;7.85;5.75;;;17.80;99.90;;;;;;5014193;28;20489;-76
2022/08/03 01:18:10;;;;;;;6.45;5.28;;;17.70;99.90;;;;;;4997460;28;20050;-76
2022/08/03 01:20:39;;;;;;;6.72;5.13;;;17.70;99.90;;;;;;5015938;28;20052;-77
2022/08/03 01:23:35;;;;;;;12.23;6.10;;;17.70;99.90;;;;;;5017258;28;20073;-76
2022/08/03 01:26:25;;;;;;;6.93;5.70;;;17.70;99.90;;;;;;4998921;28;20420;-76
2022/08/03 01:29:15;;;;;;;8.18;5.55;;;17.60;99.90;;;;;;5020852;28;20064;-76
2022/08/03 01:31:52;;;;;;;8.07;5.50;;;17.60;99.90;;;;;;5035190;28;20048;-75
2022/08/03 01:34:22;;;;;;;7.93;5.55;;;17.50;99.90;;;;;;5016861;28;20049;-77
2022/08/03 01:36:52;;;;;;;6.72;5.20;;;17.60;99.90;;;;;;5014269;28;20404;-76
2022/08/03 01:39:21;;;;;;;7.80;5.60;;;17.50;99.90;;;;;;4997211;28;20437;-76
2022/08/03 01:41:51;;;;;;;7.65;5.40;;;17.50;99.90;;;;;;4997009;28;20050;-76
2022/08/03 01:44:20;;;;;;;7.03;5.63;;;17.50;99.90;;;;;;5014969;28;20042;-75
2022/08/03 01:46:50;;;;;;;7.50;5.32;;;17.50;99.90;;;;;;5014680;28;20385;-75
2022/08/03 01:49:18;;;;;;;6.55;5.50;;;17.50;99.90;;;;;;5013816;28;20069;-76
2022/08/03 01:51:48;;;;;;;6.85;5.65;;;17.40;99.90;;;;;;5014957;28;20485;-76
2022/08/03 01:54:16;;;;;;;6.03;5.18;;;17.40;99.90;;;;;;5014885;28;20495;-77
2022/08/03 01:56:45;;;;;;;7.60;5.72;;;17.40;99.90;;;;;;4978479;28;20133;-75
2022/08/03 01:59:16;;;;;;;7.70;5.60;;;17.30;99.90;;;;;;4995613;28;20382;-76
2022/08/03 02:01:46;;;;;;;8.52;5.63;;;17.20;99.90;;;;;;4984739;28;20390;-76
2022/08/03 02:04:17;;;;;;;6.13;5.38;;;17.20;99.90;;;;;;5014269;28;20057;-74
2022/08/03 02:06:46;;;;;;;8.63;5.78;;;17.10;99.90;;;;;;4996955;28;20038;-76
2022/08/03 02:09:15;;;;;;;7.50;5.85;;;17.10;99.90;;;;;;5014756;28;20042;-74
2022/08/03 02:11:44;;;;;;;8.75;5.78;;;17.00;99.90;;;;;;5014283;28;20041;-75
2022/08/03 02:14:12;;;;;;;9.48;5.70;;;17.10;99.90;;;;;;5013591;28;20496;-75
2022/08/03 02:16:40;;;;;;;13.00;5.68;;;17.10;99.90;;;;;;5014842;28;20088;-77
2022/08/03 02:19:09;;;;;;;7.68;5.57;;;17.00;99.90;;;;;;5015443;28;20053;-76
2022/08/03 02:21:38;;;;;;;9.13;5.90;;;17.10;99.90;;;;;;5014117;28;20065;-77
2022/08/03 02:24:07;;;;;;;8.38;5.40;;;17.10;99.90;;;;;;5034817;28;20022;-79
2022/08/03 02:26:37;;;;;;;6.53;5.93;;;17.10;99.90;;;;;;5014905;28;20054;-77
2022/08/03 02:29:11;;;;;;;7.60;6.15;;;17.00;99.90;;;;;;5020484;28;20455;-76
2022/08/03 02:31:39;;;;;;;7.70;5.95;;;17.00;99.90;;;;;;5026311;28;20489;-76
2022/08/03 02:34:13;;;;;;;9.88;6.13;;;17.00;99.90;;;;;;5017200;28;20552;-76
2022/08/03 02:36:46;;;;;;;6.45;5.78;;;17.00;99.90;;;;;;4997324;28;20104;-76
2022/08/03 02:39:19;;;;;;;7.05;5.65;;;17.00;99.90;;;;;;5014588;28;20485;-76
2022/08/03 02:41:50;;;;;;;6.97;5.82;;;17.00;99.90;;;;;;4996450;28;20068;-75
2022/08/03 02:44:21;;;;;;;6.75;6.05;;;16.90;99.90;;;;;;5013900;28;20045;-75
2022/08/03 02:46:53;;;;;;;8.23;5.97;;;16.90;99.90;;;;;;5015228;28;20080;-77
2022/08/03 02:49:21;;;;;;;8.90;6.03;;;16.80;99.90;;;;;;5014125;28;20413;-77
2022/08/03 02:51:52;;;;;;;8.55;5.97;;;16.80;99.90;;;;;;5014218;28;20049;-76
2022/08/03 02:54:22;;;;;;;8.45;6.88;;;16.80;99.90;;;;;;5014206;28;20452;-75
2022/08/03 02:56:49;;;;;;;7.18;6.45;;;16.80;99.90;;;;;;5013534;28;20042;-75
2022/08/03 02:59:20;;;;;;;9.13;6.82;;;16.80;99.90;;;;;;4996003;28;20042;-75
2022/08/03 03:01:48;;;;;;;7.70;6.03;;;16.80;99.90;;;;;;4995833;28;20052;-76
2022/08/03 03:04:16;;;;;;;7.20;6.22;;;16.80;99.90;;;;;;5015272;28;20052;-76
2022/08/03 03:06:44;;;;;;;7.72;5.90;;;16.70;99.90;;;;;;5013722;28;20057;-76
2022/08/03 03:09:14;;;;;;;6.28;5.68;;;16.70;99.90;;;;;;5013642;28;20064;-76
2022/08/03 03:11:44;;;;;;;14.48;7.10;;;16.60;99.90;;;;;;5013194;28;20066;-76
2022/08/03 03:14:13;;;;;;;8.95;6.03;;;16.60;99.90;;;;;;4995979;28;20076;-76
2022/08/03 03:16:41;;;;;;;12.18;5.95;;;16.60;99.90;;;;;;5013461;28;20049;-76
2022/08/03 03:19:11;;;;;;;7.13;6.10;;;16.60;99.90;;;;;;4996020;28;20112;-76
2022/08/03 03:21:39;;;;;;;6.93;5.78;;;16.70;99.90;;;;;;5018573;28;20100;-76
2022/08/03 03:24:08;;;;;;;8.38;6.22;;;16.60;99.90;;;;;;5019415;28;20048;-77
2022/08/03 03:26:37;;;;;;;6.70;5.93;;;16.60;99.90;;;;;;5029025;28;20061;-79
2022/08/03 03:29:05;;;;;;;8.38;6.10;;;16.60;99.90;;;;;;5046081;28;20043;-78
2022/08/03 03:31:32;;;;;;;10.13;6.18;;;16.50;99.90;;;;;;5060860;28;20026;-78
2022/08/03 03:34:00;;;;;;;140.10;42.47;;;16.50;99.90;;;;;;5059845;28;20029;-77
2022/08/03 03:36:27;;;;;;;7.65;6.32;;;16.50;99.90;;;;;;5048979;28;20073;-76
2022/08/03 03:38:55;;;;;;;7.57;6.13;;;16.50;99.90;;;;;;5017908;28;20045;-75
2022/08/03 03:41:22;;;;;;;8.95;5.90;;;16.50;99.90;;;;;;5017960;28;20437;-74
2022/08/03 03:43:51;;;;;;;6.88;5.72;;;16.50;99.90;;;;;;4999425;28;20049;-74
2022/08/03 03:46:18;;;;;;;8.05;5.78;;;16.50;99.90;;;;;;4999235;28;20161;-76
2022/08/03 03:48:46;;;;;;;6.43;5.75;;;16.60;99.90;;;;;;5017244;28;20046;-76
2022/08/03 03:51:13;;;;;;;8.73;6.68;;;16.60;99.90;;;;;;5003643;28;20046;-76
2022/08/03 03:53:41;;;;;;;9.68;7.60;;;16.60;99.90;;;;;;5027052;28;20049;-75
2022/08/03 03:56:08;;;;;;;10.80;8.00;;;16.60;99.90;;;;;;4990768;28;20046;-76
2022/08/03 03:58:35;;;;;;;11.13;7.57;;;16.70;99.90;;;;;;4999218;28;20390;-75
2022/08/03 04:01:04;;;;;;;12.07;7.50;;;16.70;99.90;;;;;;4999445;28;20053;-76
2022/08/03 04:03:31;;;;;;;9.65;6.72;;;16.80;99.90;;;;;;5017722;28;20073;-76
2022/08/03 04:11:34;;;;;;;18.08;7.10;;;17.90;99.90;;;;;;5001102;28;20045;-75
2022/08/03 04:14:07;;;;;;;15.82;7.03;;;18.40;99.90;;;;;;5016691;28;20042;-75
2022/08/03 04:16:39;;;;;;;16.02;6.28;;;19.00;99.90;;;;;;5016749;28;20069;-77
2022/08/03 04:19:10;;;;;;;12.30;5.40;;;19.60;99.90;;;;;;4979078;28;20042;-74
2022/08/03 04:21:41;;;;;;;8.25;4.30;;;19.90;99.90;;;;;;4996654;28;20383;-76
2022/08/03 04:24:11;;;;;;;9.30;4.63;;;20.40;99.90;;;;;;4997845;28;20049;-76
2022/08/03 04:26:42;;;;;;;10.32;4.53;;;20.80;99.90;;;;;;5033500;28;20101;-76
2022/08/03 04:29:11;;;;;;;9.95;4.10;;;21.20;99.90;;;;;;5039623;28;20064;-76
2022/08/03 04:31:42;;;;;;;7.90;4.32;;;21.60;99.90;;;;;;5036385;28;20124;-76
2022/08/03 04:34:09;;;;;;;11.32;4.50;;;21.80;99.90;;;;;;5036078;28;20042;-75
2022/08/03 04:36:43;;;;;;;7.53;4.53;;;22.20;99.90;;;;;;5032187;28;20044;-75
2022/08/03 04:39:16;;;;;;;8.10;4.78;;;22.10;99.90;;;;;;5015485;28;20045;-76
2022/08/03 04:41:45;;;;;;;8.20;4.47;;;22.40;99.90;;;;;;5015958;28;20096;-75
2022/08/03 04:44:14;;;;;;;9.10;5.00;;;22.30;99.90;;;;;;4998244;28;20053;-75
2022/08/03 04:46:43;;;;;;;9.80;4.55;;;22.70;99.90;;;;;;5015703;28;20095;-74
2022/08/03 04:49:12;;;;;;;13.05;5.20;;;23.10;99.90;;;;;;5016287;28;20424;-75
2022/08/03 04:51:39;;;;;;;11.10;6.97;;;22.80;99.90;;;;;;4998334;28;20512;-76
2022/08/03 04:54:07;;;;;;;15.63;5.57;;;22.00;99.90;;;;;;5016008;28;20046;-75
2022/08/03 04:56:34;;;;;;;12.55;5.88;;;21.70;99.90;;;;;;5015888;28;20042;-76
2022/08/03 04:59:02;;;;;;;9.80;5.75;;;21.30;99.90;;;;;;5016509;28;20046;-74
2022/08/03 05:01:29;;;;;;;10.80;6.03;;;21.10;99.90;;;;;;4999890;28;20050;-75
2022/08/03 05:03:58;;;;;;;13.15;6.50;;;20.80;99.90;;;;;;5015977;28;20041;-75
2022/08/03 05:06:25;;;;;;;11.93;7.03;;;20.70;99.90;;;;;;4999324;28;20045;-76
2022/08/03 05:08:52;;;;;;;9.75;6.03;;;20.80;99.90;;;;;;4999293;28;20054;-76
2022/08/03 05:11:20;;;;;;;15.90;6.72;;;20.90;99.90;;;;;;4998666;28;20053;-75
2022/08/03 05:13:47;;;;;;;8.27;6.20;;;21.10;99.90;;;;;;4999406;28;20054;-76
2022/08/03 05:16:15;;;;;;;7.45;5.85;;;21.20;99.90;;;;;;5018815;28;20141;-76
2022/08/03 05:18:43;;;;;;;11.43;7.13;;;21.30;99.90;;;;;;5025898;28;20045;-76
2022/08/03 05:21:12;;;;;;;13.73;8.55;;;21.50;99.90;;;;;;5034649;28;20076;-77
2022/08/03 05:23:40;;;;;;;10.65;7.38;;;22.00;99.90;;;;;;5023611;28;20401;-76
2022/08/03 05:26:08;;;;;;;12.10;6.80;;;22.80;99.90;;;;;;4999433;28;20046;-74
2022/08/03 05:28:35;;;;;;;12.50;7.30;;;23.60;99.90;;;;;;5000864;28;20101;-75
2022/08/03 05:31:02;;;;;;;15.82;7.28;;;24.40;99.90;;;;;;5033387;28;20053;-76
2022/08/03 05:33:30;;;;;;;10.75;5.93;;;25.20;99.90;;;;;;5015902;28;20045;-76
2022/08/03 05:35:58;;;;;;;13.75;7.32;;;25.10;99.90;;;;;;5016744;28;20124;-74
2022/08/03 05:38:27;;;;;;;9.85;5.70;;;25.20;99.90;;;;;;5016106;28;20064;-75
2022/08/03 05:40:54;;;;;;;9.57;6.43;;;25.20;99.90;;;;;;5015938;28;20756;-77
2022/08/03 05:43:22;;;;;;;12.48;6.80;;;25.20;99.90;;;;;;4996364;28;20050;-74
2022/08/03 05:45:49;;;;;;;11.25;6.03;;;25.10;99.90;;;;;;4978571;28;20046;-75
2022/08/03 05:48:16;;;;;;;9.70;6.00;;;25.20;99.90;;;;;;4978290;28;20042;-76
2022/08/03 05:50:44;;;;;;;10.38;6.20;;;24.80;99.90;;;;;;4995606;28;20145;-75
2022/08/03 05:53:11;;;;;;;10.52;6.00;;;24.70;99.90;;;;;;4996842;28;20046;-76
2022/08/03 05:55:40;;;;;;;9.35;5.38;;;24.80;99.90;;;;;;4987784;28;20109;-77
2022/08/03 05:58:07;;;;;;;12.77;6.18;;;24.90;99.90;;;;;;4995923;28;20566;-75
2022/08/03 06:00:34;;;;;;;10.15;6.10;;;25.10;99.90;;;;;;4995786;28;20120;-77
2022/08/03 06:03:02;;;;;;;13.68;6.15;;;24.90;99.90;;;;;;4995246;28;20520;-76
2022/08/03 06:05:30;;;;;;;14.93;6.20;;;24.60;99.90;;;;;;4997627;28;20053;-75
2022/08/03 06:07:57;;;;;;;13.55;6.32;;;24.50;99.90;;;;;;5017639;28;20034;-76
2022/08/03 06:10:24;;;;;;;14.07;7.45;;;24.70;99.90;;;;;;5018507;28;20103;-75
2022/08/03 06:12:53;;;;;;;18.95;8.48;;;24.70;99.90;;;;;;4998062;28;20118;-76
2022/08/03 06:15:21;;;;;;;10.32;8.32;;;24.90;99.90;;;;;;5015708;28;20140;-75
2022/08/03 06:17:50;;;;;;;13.07;8.68;;;24.90;99.90;;;;;;4997533;28;20042;-77
2022/08/03 06:20:18;;;;;;;19.92;12.95;;;24.90;99.90;;;;;;4997743;28;20041;-77
2022/08/03 06:22:46;;;;;;;15.00;9.05;;;24.50;99.90;;;;;;5016801;28;20519;-76
2022/08/03 06:25:13;;;;;;;11.88;9.80;;;24.70;99.90;;;;;;4998645;28;20054;-77
2022/08/03 06:27:41;;;;;;;14.65;11.45;;;24.90;99.90;;;;;;5019951;28;20100;-78
2022/08/03 06:30:11;;;;;;;15.95;10.95;;;24.90;99.90;;;;;;5012433;28;20455;-76
2022/08/03 06:32:39;;;;;;;20.63;11.73;;;25.10;99.90;;;;;;5023561;28;20041;-75
2022/08/03 06:35:08;;;;;;;18.88;11.90;;;25.40;99.90;;;;;;5014891;28;20401;-76
2022/08/03 06:37:43;;;;;;;19.50;11.82;;;25.40;99.90;;;;;;5015068;28;20119;-77
2022/08/03 06:40:12;;;;;;;16.30;11.90;;;25.10;99.90;;;;;;5015791;28;20095;-75
2022/08/03 06:42:39;;;;;;;17.20;10.82;;;25.20;99.90;;;;;;4999076;28;20049;-75
2022/08/03 06:45:10;;;;;;;18.25;11.00;;;25.50;99.90;;;;;;4998853;28;20464;-77
2022/08/03 06:47:37;;;;;;;19.35;11.07;;;25.60;99.90;;;;;;5018468;28;20030;-77
2022/08/03 06:50:06;;;;;;;17.48;12.90;;;25.70;99.90;;;;;;5015900;28;20434;-77
2022/08/03 06:52:33;;;;;;;21.05;10.75;;;25.90;99.90;;;;;;5014961;28;20053;-76
2022/08/03 06:55:01;;;;;;;16.05;10.27;;;25.80;99.90;;;;;;4993118;28;20085;-76
2022/08/03 06:57:28;;;;;;;15.90;10.98;;;25.90;99.90;;;;;;4982259;28;20046;-76
2022/08/03 07:00:00;;;;;;;18.52;9.85;;;26.20;99.90;;;;;;4997312;28;20061;-78
2022/08/03 07:02:29;;;;;;;15.63;10.82;;;26.70;99.90;;;;;;5015864;28;20081;-76
2022/08/03 07:04:57;;;;;;;13.35;9.82;;;27.10;99.90;;;;;;4983317;28;20133;-76
2022/08/03 07:07:25;;;;;;;18.55;9.25;;;27.20;99.90;;;;;;5006499;28;20469;-78
2022/08/03 07:09:52;;;;;;;12.63;9.15;;;27.30;99.90;;;;;;5002315;28;20488;-75
2022/08/03 07:12:20;;;;;;;10.60;8.27;;;27.30;99.90;;;;;;5003949;28;20072;-75
2022/08/03 07:14:47;;;;;;;16.10;8.70;;;27.00;99.90;;;;;;5023258;28;20076;-77
2022/08/03 07:17:14;;;;;;;12.23;8.18;;;26.90;99.90;;;;;;5003463;28;20512;-77
2022/08/03 07:19:43;;;;;;;17.23;11.18;;;26.90;99.90;;;;;;5000977;28;20533;-76
2022/08/03 07:22:10;;;;;;;13.50;8.13;;;26.70;99.90;;;;;;5018739;28;20061;-78
2022/08/03 07:24:38;;;;;;;12.77;8.00;;;26.70;99.90;;;;;;5019362;28;20100;-75
2022/08/03 07:27:05;;;;;;;12.93;7.75;;;26.90;99.90;;;;;;5019260;28;20044;-75
2022/08/03 07:29:34;;;;;;;15.23;9.60;;;26.80;99.90;;;;;;5012466;28;20103;-75
2022/08/03 07:32:01;;;;;;;14.55;7.22;;;26.80;99.90;;;;;;5030265;28;20037;-76
2022/08/03 07:34:29;;;;;;;14.32;8.40;;;26.80;99.90;;;;;;5020961;28;20445;-76
2022/08/03 07:36:57;;;;;;;18.55;11.70;;;27.20;99.90;;;;;;5003098;28;20073;-78
2022/08/03 07:39:25;;;;;;;18.50;11.15;;;27.40;99.90;;;;;;5021208;28;20172;-77
2022/08/03 07:41:52;;;;;;;14.25;9.73;;;27.60;99.90;;;;;;5005947;28;20077;-76
2022/08/03 07:44:20;;;;;;;11.32;7.90;;;27.80;99.90;;;;;;5034061;28;20057;-77
2022/08/03 07:46:47;;;;;;;11.05;7.63;;;27.90;99.90;;;;;;5016941;28;20050;-75
2022/08/03 07:49:15;;;;;;;8.60;6.82;;;28.20;99.90;;;;;;5025465;28;20042;-76
2022/08/03 07:51:42;;;;;;;11.02;7.65;;;28.20;99.90;;;;;;5010289;28;20046;-76
2022/08/03 07:54:11;;;;;;;14.93;7.00;;;28.20;99.90;;;;;;5003392;28;20041;-75
2022/08/03 07:56:38;;;;;;;10.32;6.38;;;27.90;99.90;;;;;;5000765;28;20139;-78
2022/08/03 07:59:05;;;;;;;9.52;6.47;;;27.80;99.90;;;;;;4998916;28;20038;-76
2022/08/03 08:01:35;;;;;;;9.68;6.85;;;28.00;99.90;;;;;;4998672;28;20078;-76
2022/08/03 08:04:02;;;;;;;12.82;9.60;;;28.30;99.90;;;;;;4981173;28;20442;-76
2022/08/03 08:06:31;;;;;;;8.52;5.68;;;28.60;99.90;;;;;;4999120;28;20042;-77
2022/08/03 08:09:01;;;;;;;6.63;4.25;;;28.60;99.90;;;;;;4986397;28;20049;-76
2022/08/03 08:11:29;;;;;;;7.50;4.82;;;28.50;99.90;;;;;;5018526;28;20128;-77
2022/08/03 08:13:57;;;;;;;10.57;5.47;;;28.20;99.90;;;;;;5018976;28;20046;-76
2022/08/03 08:16:24;;;;;;;5.28;4.57;;;28.40;99.90;;;;;;5025009;28;20386;-76
2022/08/03 08:18:51;;;;;;;11.95;6.90;;;28.50;99.90;;;;;;5033384;28;20049;-77
2022/08/03 08:21:19;;;;;;;7.97;5.47;;;28.70;99.90;;;;;;5028679;28;20050;-75
2022/08/03 08:23:46;;;;;;;10.95;4.55;;;28.80;99.90;;;;;;5020189;28;20141;-75
2022/08/03 08:26:14;;;;;;;20.65;7.63;;;28.90;99.90;;;;;;5001216;28;20049;-77
2022/08/03 08:28:42;;;;;;;10.90;6.55;;;29.10;99.90;;;;;;5004206;28;20052;-76
2022/08/03 08:31:10;;;;;;;8.32;4.97;;;29.30;99.90;;;;;;5026770;28;20042;-77
2022/08/03 08:33:37;;;;;;;9.95;6.18;;;29.50;99.90;;;;;;5017270;28;20480;-75
2022/08/03 08:36:04;;;;;;;7.90;4.90;;;29.50;99.90;;;;;;5018232;28;20493;-76
2022/08/03 08:38:32;;;;;;;8.35;5.20;;;29.40;99.90;;;;;;5029742;28;20058;-77
2022/08/03 08:40:59;;;;;;;5.43;4.30;;;29.30;99.90;;;;;;5000143;28;20107;-76
2022/08/03 08:43:27;;;;;;;7.22;4.75;;;29.20;99.90;;;;;;5001238;28;20072;-76
2022/08/03 08:45:57;;;;;;;7.22;4.13;;;29.10;99.90;;;;;;5019273;28;20100;-74
2022/08/03 08:48:27;;;;;;;6.15;4.00;;;29.10;99.90;;;;;;5019452;28;20041;-77
2022/08/03 08:50:56;;;;;;;9.93;4.50;;;29.20;99.90;;;;;;5000724;28;20108;-77
2022/08/03 08:53:29;;;;;;;8.77;4.72;;;29.50;99.90;;;;;;5000015;28;20053;-78
2022/08/03 08:55:59;;;;;;;7.70;4.72;;;29.70;99.70;;;;;;5019134;28;20129;-78
2022/08/03 08:58:30;;;;;;;10.20;6.53;;;29.90;99.60;;;;;;5020016;28;20042;-76
2022/08/03 09:00:59;;;;;;;8.80;5.38;;;30.10;99.10;;;;;;5006437;28;20125;-77
2022/08/03 09:03:27;;;;;;;11.02;4.50;;;30.20;99.90;;;;;;5016988;28;20069;-76
2022/08/03 09:05:55;;;;;;;5.82;4.18;;;30.00;98.40;;;;;;5012765;28;20050;-76
2022/08/03 09:08:22;;;;;;;5.88;4.03;;;29.80;99.90;;;;;;5000864;28;20489;-76
2022/08/03 09:10:50;;;;;;;6.50;4.30;;;29.60;99.00;;;;;;5018571;28;20092;-76
2022/08/03 09:13:17;;;;;;;6.80;4.95;;;29.40;99.20;;;;;;5001946;28;20568;-78
2022/08/03 09:15:45;;;;;;;16.83;13.68;;;29.30;99.10;;;;;;5014855;28;20111;-78
2022/08/03 09:18:14;;;;;;;22.60;8.43;;;29.40;99.00;;;;;;5018816;28;20042;-77
2022/08/03 09:20:41;;;;;;;7.70;4.57;;;29.60;98.60;;;;;;5002223;28;20046;-76
2022/08/03 09:23:10;;;;;;;6.78;4.32;;;29.70;98.40;;;;;;5001989;28;20073;-76
2022/08/03 09:25:39;;;;;;;7.50;4.15;;;30.00;98.00;;;;;;5002367;28;20068;-77
2022/08/03 09:28:09;;;;;;;9.57;6.80;;;29.90;96.80;;;;;;5019740;28;20096;-78
2022/08/03 09:30:37;;;;;;;7.22;5.13;;;30.20;96.90;;;;;;5002487;28;20469;-76
2022/08/03 09:33:08;;;;;;;20.42;13.48;;;30.60;95.90;;;;;;5019358;28;20052;-78
2022/08/03 09:35:42;;;;;;;7.07;4.95;;;30.40;95.30;;;;;;5001935;28;20045;-77
2022/08/03 09:38:14;;;;;;;8.57;6.82;;;30.00;94.80;;;;;;5000227;28;20054;-78
2022/08/03 09:40:42;;;;;;;12.15;4.40;;;30.10;94.10;;;;;;5019353;23;20344;-73
2022/08/03 09:43:10;;;;;;;5.82;4.15;;;30.20;93.80;;;;;;5013695;28;20104;-74
2022/08/03 09:45:39;;;;;;;5.20;3.78;;;30.50;93.10;;;;;;5013978;28;20053;-75
2022/08/03 09:48:26;;;;;;;6.10;3.20;;;30.70;92.00;;;;;;5014085;28;20472;-75
2022/08/03 09:50:56;;;;;;;4.20;3.35;;;30.90;91.30;;;;;;5013839;28;20097;-75
2022/08/03 09:53:25;;;;;;;9.10;3.70;;;31.00;90.80;;;;;;5013609;28;20471;-75
2022/08/03 09:55:54;;;;;;;6.43;3.10;;;31.20;90.60;;;;;;5012224;28;20112;-75
2022/08/03 09:58:21;;;;;;;4.38;2.80;;;31.50;90.30;;;;;;5013572;28;20060;-75
2022/08/03 10:00:57;;;;;;;4.07;3.10;;;31.60;89.90;;;;;;5013621;28;20042;-76
2022/08/03 10:03:27;;;;;;;8.55;3.72;;;31.70;88.40;;;;;;5013536;28;20108;-74
2022/08/03 10:05:56;;;;;;;5.55;4.00;;;31.90;88.20;;;;;;5013672;28;20050;-75
2022/08/03 10:08:24;;;;;;;3.33;2.80;;;31.90;87.50;;;;;;5013439;28;20042;-75
2022/08/03 10:10:53;;;;;;;5.05;3.25;;;32.00;86.10;;;;;;5013625;28;20034;-75
2022/08/03 10:13:23;;;;;;;7.53;3.65;;;31.90;85.40;;;;;;5013328;28;20132;-75
2022/08/03 10:15:50;;;;;;;5.05;3.08;;;31.90;85.30;;;;;;5013601;28;20046;-75
2022/08/03 10:18:17;;;;;;;11.23;4.50;;;31.70;84.90;;;;;;5013461;28;20058;-75
2022/08/03 10:20:49;;;;;;;4.43;3.45;;;31.80;85.00;;;;;;5012030;28;20064;-75
2022/08/03 10:23:20;;;;;;;7.40;4.93;;;32.10;84.10;;;;;;5012940;28;20061;-74
2022/08/03 10:25:49;;;;;;;6.40;4.10;;;32.60;83.00;;;;;;5013547;28;20070;-74
2022/08/03 10:28:19;;;;;;;5.25;3.25;;;32.90;82.00;;;;;;5012147;28;20052;-74
2022/08/03 10:30:50;;;;;;;5.15;3.90;;;33.20;81.00;;;;;;5013108;28;20041;-75
2022/08/03 10:33:19;;;;;;;6.35;4.93;;;33.20;80.10;;;;;;5013057;28;20092;-74
2022/08/03 10:35:50;;;;;;;6.47;5.07;;;33.20;79.50;;;;;;5012439;28;20115;-74
2022/08/03 10:38:23;;;;;;;5.97;3.70;;;33.50;78.10;;;;;;5013557;28;20034;-73
2022/08/03 10:40:54;;;;;;;5.80;3.75;;;33.20;76.60;;;;;;5012713;28;20064;-74
2022/08/03 10:43:26;;;;;;;4.05;3.42;;;33.10;77.40;;;;;;5013483;28;20046;-75
2022/08/03 10:45:53;;;;;;;6.75;3.67;;;32.40;78.20;;;;;;5013378;28;20069;-75
2022/08/03 10:48:21;;;;;;;5.35;3.90;;;31.70;80.50;;;;;;5013345;28;20038;-74
2022/08/03 10:50:50;;;;;;;7.07;4.13;;;31.60;81.40;;;;;;5012229;28;20073;-74
2022/08/03 10:53:34;;;;;;;10.82;4.22;;;31.30;82.30;;;;;;5012943;28;20077;-75
2022/08/03 10:58:48;;;;;;;6.13;4.68;;;31.30;82.50;;;;;;5012779;28;20117;-75
2022/08/03 11:01:16;;;;;;;6.07;4.57;;;31.30;82.40;;;;;;5012502;28;20038;-76
2022/08/03 11:04:20;;;;;;;7.57;5.03;;;31.40;82.30;;;;;;5012539;28;20073;-76
2022/08/03 11:06:48;;;;;;;9.45;4.43;;;31.80;80.60;;;;;;5011667;28;20085;-74
2022/08/03 11:09:18;;;;;;;4.47;3.38;;;31.80;79.60;;;;;;5012753;28;20405;-75
2022/08/03 11:11:47;;;;;;;6.00;4.22;;;32.20;78.40;;;;;;5014097;28;20049;-75
2022/08/03 11:14:18;;;;;;;7.35;4.57;;;32.60;77.90;;;;;;5023640;28;20501;-75
2022/08/03 11:16:48;;;;;;;4.85;3.83;;;33.10;76.30;;;;;;5033933;28;20076;-74
2022/08/03 11:19:21;;;;;;;52.83;40.78;;;32.80;75.20;;;;;;5023951;28;20046;-74
2022/08/03 11:21:58;;;;;;;11.07;8.85;;;32.80;75.90;;;;;;5013874;28;20493;-73
2022/08/03 11:25:04;;;;;;;7.50;5.93;;;32.70;75.20;;;;;;5014051;28;20050;-76
2022/08/03 11:27:33;;;;;;;9.77;8.27;;;32.40;75.80;;;;;;5013195;28;20046;-76
2022/08/03 11:30:05;;;;;;;8.65;6.82;;;32.00;76.30;;;;;;5022441;28;20464;-76
2022/08/03 11:32:57;;;;;;;6.88;4.35;;;32.00;76.30;;;;;;5013749;28;20050;-74
2022/08/03 11:35:26;;;;;;;7.00;3.63;;;31.70;77.00;;;;;;5013290;28;20042;-75
2022/08/03 11:38:05;;;;;;;5.03;3.20;;;31.20;75.50;;;;;;5012363;28;20665;-75
2022/08/03 11:40:37;;;;;;;5.53;3.40;;;31.10;73.60;;;;;;5013028;28;20400;-75
2022/08/03 11:43:06;;;;;;;5.43;3.70;;;30.80;74.00;;;;;;5013044;28;20114;-75
2022/08/03 11:45:34;;;;;;;4.97;3.72;;;30.80;74.40;;;;;;5013161;28;20042;-76
2022/08/03 11:48:13;;;;;;;7.00;3.22;;;30.90;75.20;;;;;;5015952;28;20046;-75
2022/08/03 11:50:43;;;;;;;5.13;3.10;;;31.00;75.80;;;;;;5016579;28;20068;-76
2022/08/03 11:53:16;;;;;;;13.55;3.78;;;30.80;75.70;;;;;;4997296;28;20125;-75
2022/08/03 11:55:47;;;;;;;4.80;4.05;;;30.90;75.50;;;;;;5011723;28;20132;-75
2022/08/03 11:58:22;;;;;;;5.07;3.65;;;31.10;75.20;;;;;;5016685;28;20385;-75
2022/08/03 12:00:50;;;;;;;6.10;3.43;;;31.30;74.50;;;;;;5016705;28;20084;-75
2022/08/03 12:03:19;;;;;;;5.45;3.42;;;31.50;73.60;;;;;;5016851;28;20161;-75
2022/08/03 12:05:49;;;;;;;6.68;3.63;;;31.70;73.60;;;;;;5016556;28;20041;-76
2022/08/03 12:08:18;;;;;;;4.15;3.40;;;32.00;73.00;;;;;;5016939;28;20405;-75
2022/08/03 12:10:51;;;;;;;4.55;3.30;;;32.10;72.00;;;;;;5015308;28;21687;-75
2022/08/03 12:13:19;;;;;;;4.07;3.03;;;32.20;72.10;;;;;;5014301;28;20469;-76
2022/08/03 12:15:52;;;;;;;4.05;3.50;;;32.10;71.40;;;;;;5014093;28;20104;-76
2022/08/03 12:18:20;;;;;;;6.25;5.00;;;32.30;72.10;;;;;;5015848;28;20073;-76
2022/08/03 12:20:49;;;;;;;7.70;5.85;;;32.50;70.90;;;;;;5015514;28;20044;-76
2022/08/03 12:23:18;;;;;;;4.72;3.90;;;32.60;70.50;;;;;;5014911;28;20046;-75
2022/08/03 12:25:46;;;;;;;5.05;4.05;;;32.70;69.80;;;;;;5015810;28;20088;-75
2022/08/03 12:28:17;;;;;;;6.05;5.05;;;32.60;69.30;;;;;;5015962;28;20038;-75
2022/08/03 12:30:47;;;;;;;6.35;3.92;;;32.40;69.90;;;;;;5027678;28;20042;-76
2022/08/03 12:33:16;;;;;;;4.57;3.75;;;32.10;69.90;;;;;;5015439;28;20049;-75
2022/08/03 12:35:43;;;;;;;6.10;4.60;;;32.00;70.20;;;;;;5015729;28;20488;-75
2022/08/03 12:38:12;;;;;;;7.70;4.88;;;31.90;70.70;;;;;;5015501;28;20046;-75
2022/08/03 12:40:39;;;;;;;9.35;4.38;;;31.90;71.30;;;;;;5014650;28;20048;-75
2022/08/03 12:43:15;;;;;;;7.40;6.68;;;31.80;71.50;;;;;;5014138;28;20038;-76
2022/08/03 12:45:42;;;;;;;8.05;4.80;;;31.80;72.50;;;;;;5015337;28;20069;-75
2022/08/03 12:48:11;;;;;;;7.57;5.28;;;31.80;72.10;;;;;;5015408;28;20044;-74
2022/08/03 12:50:40;;;;;;;6.50;3.90;;;31.70;72.70;;;;;;5013536;28;20045;-75
2022/08/03 12:53:09;;;;;;;12.02;4.47;;;31.60;73.00;;;;;;5014942;28;20042;-76
2022/08/03 12:55:37;;;;;;;5.97;4.55;;;31.50;73.10;;;;;;5015096;28;20049;-76
2022/08/03 12:58:06;;;;;;;8.13;4.55;;;31.60;73.20;;;;;;5014362;28;20042;-75
2022/08/03 13:00:35;;;;;;;9.77;5.03;;;31.80;72.50;;;;;;5014692;28;20536;-75
2022/08/03 13:03:04;;;;;;;6.13;4.85;;;31.90;72.10;;;;;;5014794;28;20444;-75